HE39 weather

As Salihiyah Airport
Sharqia Governorate, Egypt

Public forecast

Using degrees Celsius for public forecast. Weather courtesy of forecast.io.

Closest aviation weather report (METAR) to As Salihiyah Airport

Closest report is Port Said Airport, 30.8 nm (57.0 km) NNE. Retrieved 2019/10/16 08:00 UTC (4 minutes ago):

HEPS 160800Z 30008KT 9999 FEW025 27/22 Q1015 NOSIG

Closest aviation forecast (TAF) to As Salihiyah Airport

Closest forecast is Port Said Airport, 30.8 nm (57.0 km) NNE. Retrieved 2019/10/16 06:06 UTC (2 hours ago):

TAF HEPS 160500Z 1606/1712 31009KT 9999 SCT025 TEMPO 1606/1608 VRB03KT 4000 BR NSC